Map

Track Data

SID SEASON NUMBER BASIN SUBBASIN NAME ISO_TIME NATURE LAT LON WMO_WIND WMO_PRES WMO_AGENCY TRACK_TYPE DIST2LAND LANDFALL IFLAG USA_AGENCY USA_ATCF_ID USA_LAT USA_LON USA_RECORD USA_STATUS USA_WIND USA_PRES USA_SSHS USA_R34_NE USA_R34_SE USA_R34_SW USA_R34_NW USA_R50_NE USA_R50_SE USA_R50_SW USA_R50_NW USA_R64_NE USA_R64_SE USA_R64_SW USA_R64_NW USA_POCI USA_ROCI USA_RMW USA_EYE TOKYO_LAT TOKYO_LON TOKYO_GRADE TOKYO_WIND TOKYO_PRES TOKYO_R50_DIR TOKYO_R50_LONG TOKYO_R50_SHORT TOKYO_R30_DIR TOKYO_R30_LONG TOKYO_R30_SHORT TOKYO_LAND CMA_LAT CMA_LON CMA_CAT CMA_WIND CMA_PRES HKO_LAT HKO_LON HKO_CAT HKO_WIND HKO_PRES NEWDELHI_LAT NEWDELHI_LON NEWDELHI_GRADE NEWDELHI_WIND NEWDELHI_PRES NEWDELHI_CI NEWDELHI_DP NEWDELHI_POCI REUNION_LAT REUNION_LON REUNION_TYPE REUNION_WIND REUNION_PRES REUNION_TNUM REUNION_CI REUNION_RMW REUNION_R34_NE REUNION_R34_SE REUNION_R34_SW REUNION_R34_NW REUNION_R50_NE REUNION_R50_SE REUNION_R50_SW REUNION_R50_NW REUNION_R64_NE REUNION_R64_SE REUNION_R64_SW REUNION_R64_NW BOM_LAT BOM_LON BOM_TYPE BOM_WIND BOM_PRES BOM_TNUM BOM_CI BOM_RMW BOM_R34_NE BOM_R34_SE BOM_R34_SW BOM_R34_NW BOM_R50_NE BOM_R50_SE BOM_R50_SW BOM_R50_NW BOM_R64_NE BOM_R64_SE BOM_R64_SW BOM_R64_NW BOM_ROCI BOM_POCI BOM_EYE BOM_POS_METHOD BOM_PRES_METHOD NADI_LAT NADI_LON NADI_CAT NADI_WIND NADI_PRES WELLINGTON_LAT WELLINGTON_LON WELLINGTON_WIND WELLINGTON_PRES DS824_LAT DS824_LON DS824_STAGE DS824_WIND DS824_PRES TD9636_LAT TD9636_LON TD9636_STAGE TD9636_WIND TD9636_PRES TD9635_LAT TD9635_LON TD9635_WIND TD9635_PRES TD9635_ROCI NEUMANN_LAT NEUMANN_LON NEUMANN_CLASS NEUMANN_WIND NEUMANN_PRES MLC_LAT MLC_LON MLC_CLASS MLC_WIND MLC_PRES USA_GUST BOM_GUST BOM_GUST_PER REUNION_GUST REUNION_GUST_PER USA_SEAHGT USA_SEARAD_NE USA_SEARAD_SE USA_SEARAD_SW USA_SEARAD_NW STORM_SPEED STORM_DIR
1926231N16112 1926 33 WP MM NOT_NAMED 1926-08-19 10:00:00 NR 16.1000 112.300 main 353 338 __________O___ -1 16.1000 112.300 2 5 324
1926231N16112 1926 33 WP MM NOT_NAMED 1926-08-19 12:00:00 NR 16.2425 112.194 main 338 298 __________P___ -1 16.2425 112.194 2 5 325
1926231N16112 1926 33 WP MM NOT_NAMED 1926-08-19 15:00:00 NR 16.4589 112.031 main 298 274 __________P___ -1 16.4589 112.031 2 5 324
1926231N16112 1926 33 WP MM NOT_NAMED 1926-08-19 18:00:00 NR 16.6827 111.858 main 274 243 __________P___ -1 16.6827 111.858 2 6 323
1926231N16112 1926 33 WP MM NOT_NAMED 1926-08-19 21:00:00 NR 16.9182 111.668 main 243 228 __________P___ -1 16.9182 111.668 2 6 322
1926231N16112 1926 33 WP MM NOT_NAMED 1926-08-19 22:00:00 NR 17.0000 111.600 main 228 204 __________O___ -1 17.0000 111.600 2 6 321
1926231N16112 1926 33 WP MM NOT_NAMED 1926-08-20 00:00:00 NR 17.1693 111.456 main 204 168 __________P___ -1 17.1693 111.456 2 7 321
1926231N16112 1926 33 WP MM NOT_NAMED 1926-08-20 03:00:00 NR 17.4359 111.228 main 168 128 __________P___ -1 17.4359 111.228 2 7 321
1926231N16112 1926 33 WP MM NOT_NAMED 1926-08-20 06:00:00 NR 17.7147 110.995 main 128 88 __________P___ -1 17.7147 110.995 2 7 322
1926231N16112 1926 33 WP MM NOT_NAMED 1926-08-20 09:00:00 NR 18.0025 110.771 main 88 74 __________P___ -1 18.0025 110.771 2 7 324
1926231N16112 1926 33 WP MM NOT_NAMED 1926-08-20 10:00:00 NR 18.1000 110.700 main 74 49 __________O___ -1 18.1000 110.700 2 6 327
1926231N16112 1926 33 WP MM NOT_NAMED 1926-08-20 12:00:00 NR 18.2652 110.589 main 49 22 __________P___ -1 18.2652 110.589 2 6 329
1926231N16112 1926 33 WP MM NOT_NAMED 1926-08-20 15:00:00 NR 18.5188 110.437 main 22 0 __________P___ -1 18.5188 110.437 2 6 331
1926231N16112 1926 33 WP MM NOT_NAMED 1926-08-20 18:00:00 NR 18.8072 110.276 main 0 0 __________P___ -1 18.8072 110.276 2 7 332
1926231N16112 1926 33 WP MM NOT_NAMED 1926-08-20 21:00:00 NR 19.1617 110.079 main 0 0 __________P___ -1 19.1617 110.079 2 8 332
1926231N16112 1926 33 WP MM NOT_NAMED 1926-08-20 22:00:00 NR 19.3000 110.000 main 0 0 __________O___ -1 19.3000 110.000 2 11 330
1926231N16112 1926 33 WP MM NOT_NAMED 1926-08-21 00:00:00 NR 19.6208 109.802 main 0 0 __________P___ -1 19.6208 109.802 2 12 330
1926231N16112 1926 33 WP MM NOT_NAMED 1926-08-21 03:00:00 NR 20.1712 109.460 main 33 35 __________P___ -1 20.1712 109.460 2 13 330
1926231N16112 1926 33 WP MM NOT_NAMED 1926-08-21 06:00:00 NR 20.7740 109.090 main 62 22 __________P___ -1 20.7740 109.090 2 14 330
1926231N16112 1926 33 WP MM NOT_NAMED 1926-08-21 09:00:00 NR 21.3949 108.719 main 22 10 __________P___ -1 21.3949 108.719 2 14 331
1926231N16112 1926 33 WP MM NOT_NAMED 1926-08-21 10:00:00 NR 21.6000 108.600 main 10 0 __________O___ -1 21.6000 108.600 2 14 332
1926231N16112 1926 33 WP MM NOT_NAMED 1926-08-21 12:00:00 NR 22.0018 108.375 main 0 0 __________P___ -1 22.0018 108.375 2 13 333
1926231N16112 1926 33 WP MM NOT_NAMED 1926-08-21 15:00:00 NR 22.5863 108.062 main 0 0 __________P___ -1 22.5863 108.062 2 13 334
1926231N16112 1926 33 WP MM NOT_NAMED 1926-08-21 18:00:00 NR 23.1550 107.771 main 0 0 __________P___ -1 23.1550 107.771 2 12 335
1926231N16112 1926 33 WP MM NOT_NAMED 1926-08-21 21:00:00 NR 23.7144 107.492 main 0 0 __________P___ -1 23.7144 107.492 2 12 335
1926231N16112 1926 33 WP MM NOT_NAMED 1926-08-21 22:00:00 NR 23.9000 107.400 main 0 __________O___ -1 23.9000 107.400 7 12 335

Digital Typhoon Data and Search

About IBTrACS Database

This database is a web-friendly format of International Best Track Archive for Climate Stewardship (IBTrACS), a global best track data archive curated by NOAA dating back to 1842.

Updated: 2021-10-19